Aeroporto :
LOGIN :

Iscrizione | Disclaimer

   EN    FR    IT 

 










Sommario :    VFR   VFR Marginale   IFR   IFR Intensivo   IFR Molto Intensivo
Visibilità : 
Base nubi : 
>= 8 km
>= 3000ft
5 / 8 km
1000 / 3000 ft
1500m / 5 km
500 / 1000 ft
800 / 1500m
200 / 500 ft
< 800m
< 200 ft
Simboli :   Temporali  Nebbia  Neve Forte  Precipitazioni Forti  Vento > 20 kt
SIGMETs :   Varie  Temporali  Ghiacco  Turbolenza  Onda orograficha  Ceneri Vulcaniche






- Altitudine del aeroporto : 47 ft
- Codice IATA : CBG


EGSC - Cambridge

ULTIMO METAR :
  • 241250Z 25004KT 4500 BR BKN019 07/06 Q1022

METARs OBSOLETI :
  • 241220Z VRB02KT 4500 BR BKN018 07/06 Q1022
  • 241150Z VRB02KT 4500 BR BKN018 07/06 Q1023
  • 241120Z 23004KT 4500 BR FEW010 BKN018 07/06 Q1023
  • 241050Z 23004KT 190V250 4500 BR FEW010 BKN016 07/06 Q1023
  • 241020Z 23003KT 4200 BR BKN015 07/06 Q1023

TAF TAF EGSC
Valido dal 24 a 12 ore il 24 a 19 ore UTC


241101Z 2412/2419 VRB04KT 8000 BKN016
TEMPO 2412/2413 3000 -DZ BR BKN006
TEMPO 2413/2419 9999



MetMap, La meteo Aeronautica in un colpo d'occhio ! - Copyright ORBIFLY Dicembre 2007 - Disclaimer

ORBIFLY MET'MAP TEAM :

Programmazione e sviluppo : Alexandra Zaïnal
Concezione : Baudouin d'Aumeries
Aiuto per la programmazione : Marc-Olivier Méhu
Supporto tecnico e logistico : Manuel Goepfert
Aiuto per la traduzione : Arnaldo La Scala

Contatto : metmap@orbifly.com




FONTI E CREDITI :

   NOAA